createdAt,value
2023-05-02T00:00:04.916Z,84
2023-05-02T00:00:33.825Z,84
2023-05-02T00:00:51.776Z,84
2023-05-02T00:01:23.596Z,84
2023-05-02T00:01:40.854Z,83
2023-05-02T00:02:12.495Z,83
2023-05-02T00:02:33.927Z,84
2023-05-02T00:02:59.935Z,84
2023-05-02T00:03:31.649Z,84
2023-05-02T00:04:03.704Z,84
2023-05-02T00:04:33.987Z,84
2023-05-02T00:04:52.215Z,84
2023-05-02T00:05:24.478Z,84
2023-05-02T00:05:41.708Z,84
2023-05-02T00:06:11.695Z,84
2023-05-02T00:06:33.844Z,84
2023-05-02T00:06:59.647Z,84
2023-05-02T00:07:32.458Z,84
2023-05-02T00:08:03.650Z,84
2023-05-02T00:08:36.252Z,84
2023-05-02T00:09:07.731Z,84
2023-05-02T00:09:33.824Z,84
2023-05-02T00:09:55.610Z,84
2023-05-02T00:10:27.656Z,84
2023-05-02T00:10:59.875Z,84
2023-05-02T00:11:31.643Z,84
2023-05-02T00:12:04.536Z,84
2023-05-02T00:12:33.805Z,84
2023-05-02T00:12:51.596Z,84
2023-05-02T00:13:23.677Z,84
2023-05-02T00:13:40.846Z,84
2023-05-02T00:14:12.517Z,84
2023-05-02T00:14:34.434Z,84
2023-05-02T00:14:59.565Z,84
2023-05-02T00:15:31.664Z,84
2023-05-02T00:16:03.567Z,84
2023-05-02T00:16:33.848Z,84
2023-05-02T00:16:51.631Z,84
2023-05-02T00:17:24.546Z,84
2023-05-02T00:17:41.703Z,84
2023-05-02T00:18:11.671Z,84
2023-05-02T00:18:33.833Z,84
2023-05-02T00:18:59.835Z,84
2023-05-02T00:19:32.645Z,84
2023-05-02T00:20:03.592Z,84
2023-05-02T00:20:35.024Z,84
2023-05-02T00:20:51.485Z,84
2023-05-02T00:21:23.542Z,85
2023-05-02T00:21:41.610Z,84
2023-05-02T00:22:11.633Z,84
2023-05-02T00:22:33.824Z,84
2023-05-02T00:22:59.585Z,84
2023-05-02T00:23:31.635Z,84
2023-05-02T00:24:04.645Z,84
2023-05-02T00:24:33.784Z,84
2023-05-02T00:24:51.592Z,84
2023-05-02T00:25:29.737Z,84
2023-05-02T00:25:33.795Z,84
2023-05-02T00:25:55.617Z,84
2023-05-02T00:26:27.628Z,84
2023-05-02T00:26:59.561Z,84
2023-05-02T00:27:31.732Z,84
2023-05-02T00:28:03.570Z,84
2023-05-02T00:28:33.910Z,84
2023-05-02T00:28:51.554Z,85
2023-05-02T00:29:24.682Z,85
2023-05-02T00:29:41.791Z,85
2023-05-02T00:30:11.623Z,85
2023-05-02T00:30:33.820Z,85
2023-05-02T00:30:59.658Z,85
2023-05-02T00:31:32.531Z,85
2023-05-02T00:32:10.814Z,85
2023-05-02T00:32:19.594Z,85
2023-05-02T00:32:37.884Z,85
2023-05-02T00:33:07.706Z,85
2023-05-02T00:33:33.787Z,85
2023-05-02T00:33:55.636Z,85
2023-05-02T00:34:27.628Z,85
2023-05-02T00:35:00.563Z,85
2023-05-02T00:35:31.637Z,85
2023-05-02T00:36:04.508Z,85
2023-05-02T00:36:33.781Z,85
2023-05-02T00:36:51.732Z,85
2023-05-02T00:37:23.546Z,86
2023-05-02T00:37:40.832Z,86
2023-05-02T00:38:12.486Z,86
2023-05-02T00:38:33.827Z,86
2023-05-02T00:38:59.593Z,86
2023-05-02T00:39:31.620Z,86
2023-05-02T00:40:03.600Z,86
2023-05-02T00:40:33.847Z,86
2023-05-02T00:40:51.552Z,86
2023-05-02T00:41:24.473Z,86
2023-05-02T00:41:55.580Z,86
2023-05-02T00:42:28.541Z,86
2023-05-02T00:42:59.570Z,86
2023-05-02T00:43:32.769Z,86
2023-05-02T00:44:03.580Z,86
2023-05-02T00:44:35.079Z,86
2023-05-02T00:44:51.544Z,86
2023-05-02T00:45:23.612Z,87
2023-05-02T00:45:41.708Z,87
2023-05-02T00:46:11.643Z,87
2023-05-02T00:46:33.930Z,87
2023-05-02T00:46:59.712Z,87
2023-05-02T00:47:31.651Z,86
2023-05-02T00:48:04.534Z,86
2023-05-02T00:48:33.818Z,86
2023-05-02T00:48:51.577Z,86
2023-05-02T00:49:29.802Z,86
2023-05-02T00:49:33.891Z,86
2023-05-02T00:49:55.580Z,86
2023-05-02T00:50:27.693Z,86
2023-05-02T00:50:59.591Z,86
2023-05-02T00:51:31.641Z,86
2023-05-02T00:52:03.592Z,86
2023-05-02T00:52:33.808Z,86
2023-05-02T00:52:51.582Z,86
2023-05-02T00:53:24.442Z,86
2023-05-02T00:53:41.735Z,86
2023-05-02T00:54:11.645Z,87
2023-05-02T00:54:34.026Z,87
2023-05-02T00:54:59.561Z,87
2023-05-02T00:55:32.408Z,87
2023-05-02T00:56:03.600Z,87
2023-05-02T00:56:34.836Z,87
2023-05-02T00:57:07.029Z,87
2023-05-02T00:57:23.506Z,87
2023-05-02T00:57:41.779Z,87
2023-05-02T00:58:11.617Z,87
2023-05-02T00:58:33.765Z,87
2023-05-02T00:58:59.581Z,87
2023-05-02T00:59:31.635Z,87
2023-05-02T01:00:04.755Z,87
2023-05-02T01:00:33.790Z,87
2023-05-02T01:00:51.568Z,87
2023-05-02T01:01:23.602Z,87
2023-05-02T01:01:40.836Z,87
2023-05-02T01:02:12.612Z,87
2023-05-02T01:02:33.880Z,87
2023-05-02T01:02:59.628Z,87
2023-05-02T01:03:38.049Z,87
2023-05-02T01:03:48.975Z,87
2023-05-02T01:04:20.778Z,87
2023-05-02T01:04:38.095Z,87
2023-05-02T01:05:07.723Z,87
2023-05-02T01:05:33.797Z,87
2023-05-02T01:05:55.633Z,87
2023-05-02T01:06:29.577Z,87
2023-05-02T01:06:59.559Z,87
2023-05-02T01:07:32.488Z,87
2023-05-02T01:08:03.564Z,87
2023-05-02T01:08:34.784Z,87
2023-05-02T01:08:51.695Z,87
2023-05-02T01:09:23.718Z,87
2023-05-02T01:09:41.674Z,87
2023-05-02T01:10:11.625Z,87
2023-05-02T01:10:34.902Z,87
2023-05-02T01:10:59.686Z,87
2023-05-02T01:11:31.620Z,87
2023-05-02T01:12:04.569Z,87
2023-05-02T01:12:33.762Z,87
2023-05-02T01:12:51.555Z,87
2023-05-02T01:13:24.467Z,88
2023-05-02T01:13:41.844Z,88
2023-05-02T01:14:11.638Z,88
2023-05-02T01:14:33.831Z,88
2023-05-02T01:14:59.573Z,88
2023-05-02T01:15:32.478Z,88
2023-05-02T01:16:03.638Z,88
2023-05-02T01:16:34.737Z,88
2023-05-02T01:17:06.893Z,88
2023-05-02T01:17:23.476Z,88
2023-05-02T01:17:41.634Z,88
2023-05-02T01:18:11.741Z,88
2023-05-02T01:18:33.799Z,88
2023-05-02T01:18:59.810Z,88
2023-05-02T01:19:31.591Z,88
2023-05-02T01:20:04.694Z,89
2023-05-02T01:20:34.397Z,89
2023-05-02T01:21:08.636Z,89
2023-05-02T01:21:33.790Z,89
2023-05-02T01:21:55.513Z,89
2023-05-02T01:22:27.627Z,89
2023-05-02T01:22:59.766Z,89
2023-05-02T01:23:31.502Z,89
2023-05-02T01:24:03.630Z,89
2023-05-02T01:24:33.792Z,89
2023-05-02T01:24:51.629Z,89
2023-05-02T01:25:24.564Z,90
2023-05-02T01:25:41.707Z,89
2023-05-02T01:26:11.619Z,90
2023-05-02T01:26:34.031Z,90
2023-05-02T01:26:59.836Z,90
2023-05-02T01:27:32.689Z,90
2023-05-02T01:28:05.345Z,90
2023-05-02T01:28:35.005Z,90
2023-05-02T01:28:51.626Z,90
2023-05-02T01:29:23.626Z,90
2023-05-02T01:29:41.760Z,90
2023-05-02T01:30:11.922Z,90
2023-05-02T01:30:33.764Z,89
2023-05-02T01:30:59.582Z,89
2023-05-02T01:31:33.831Z,89
2023-05-02T01:32:04.478Z,89
2023-05-02T01:32:33.813Z,89
2023-05-02T01:32:51.638Z,89
2023-05-02T01:33:23.625Z,89
2023-05-02T01:33:40.730Z,90
2023-05-02T01:34:12.538Z,89
2023-05-02T01:34:33.758Z,89
2023-05-02T01:34:59.639Z,89
2023-05-02T01:35:31.669Z,89
2023-05-02T01:36:03.627Z,89
2023-05-02T01:36:33.783Z,89
2023-05-02T01:36:51.552Z,89
2023-05-02T01:37:24.533Z,89
2023-05-02T01:37:41.953Z,89
2023-05-02T01:38:11.773Z,89
2023-05-02T01:38:33.810Z,89
2023-05-02T01:38:59.557Z,89
2023-05-02T01:39:32.560Z,89
2023-05-02T01:40:03.557Z,89
2023-05-02T01:40:34.765Z,89
2023-05-02T01:41:07.024Z,89
2023-05-02T01:41:23.659Z,89
2023-05-02T01:41:41.663Z,89
2023-05-02T01:42:11.692Z,89
2023-05-02T01:42:33.822Z,89
2023-05-02T01:42:59.627Z,89
2023-05-02T01:43:31.524Z,89
2023-05-02T01:44:04.543Z,89
2023-05-02T01:44:33.980Z,89
2023-05-02T01:44:51.512Z,89
2023-05-02T01:45:23.662Z,89
2023-05-02T01:45:40.861Z,89
2023-05-02T01:46:12.608Z,89
2023-05-02T01:46:34.682Z,89
2023-05-02T01:46:59.716Z,89
2023-05-02T01:47:31.740Z,89
2023-05-02T01:48:03.587Z,89
2023-05-02T01:48:34.126Z,89
2023-05-02T01:48:51.541Z,88
2023-05-02T01:49:24.617Z,88
2023-05-02T01:49:41.867Z,88
2023-05-02T01:50:11.616Z,88
2023-05-02T01:50:34.311Z,88
2023-05-02T01:50:59.668Z,88
2023-05-02T01:51:32.614Z,88
2023-05-02T01:52:03.604Z,88
2023-05-02T01:52:34.576Z,88
2023-05-02T01:53:07.577Z,88
2023-05-02T01:53:33.848Z,88
2023-05-02T01:53:55.490Z,88
2023-05-02T01:54:27.598Z,88
2023-05-02T01:55:00.667Z,88
2023-05-02T01:55:31.536Z,88
2023-05-02T01:56:04.452Z,88
2023-05-02T01:56:34.063Z,88
2023-05-02T01:56:51.593Z,88
2023-05-02T01:57:23.575Z,88
2023-05-02T01:57:40.729Z,88
2023-05-02T01:58:12.404Z,88
2023-05-02T01:58:33.930Z,88
2023-05-02T01:58:59.732Z,89
2023-05-02T01:59:31.681Z,89
2023-05-02T02:00:03.911Z,88
2023-05-02T02:00:33.890Z,88
2023-05-02T02:00:51.516Z,88
2023-05-02T02:01:24.458Z,88
2023-05-02T02:01:41.868Z,88
2023-05-02T02:02:11.607Z,88
2023-05-02T02:02:33.983Z,88
2023-05-02T02:02:59.576Z,88
2023-05-02T02:03:32.474Z,88
2023-05-02T02:04:03.609Z,88
2023-05-02T02:04:34.921Z,88
2023-05-02T02:04:51.350Z,88
2023-05-02T02:05:23.606Z,88
2023-05-02T02:05:41.769Z,88
2023-05-02T02:06:11.584Z,88
2023-05-02T02:06:34.036Z,88
2023-05-02T02:06:59.545Z,88
2023-05-02T02:07:31.595Z,88
2023-05-02T02:08:04.524Z,88
2023-05-02T02:08:33.809Z,88
2023-05-02T02:08:51.490Z,88
2023-05-02T02:09:23.511Z,88
2023-05-02T02:09:40.856Z,88
2023-05-02T02:10:12.477Z,88
2023-05-02T02:10:33.836Z,88
2023-05-02T02:10:59.554Z,88
2023-05-02T02:11:31.488Z,88
2023-05-02T02:12:03.710Z,87
2023-05-02T02:12:34.005Z,87
2023-05-02T02:12:51.566Z,87
2023-05-02T02:13:24.393Z,88
2023-05-02T02:13:41.589Z,88
2023-05-02T02:14:11.519Z,88
2023-05-02T02:14:33.883Z,88
2023-05-02T02:14:59.555Z,87
2023-05-02T02:15:32.555Z,88
2023-05-02T02:16:03.521Z,88
2023-05-02T02:16:34.712Z,88
2023-05-02T02:17:07.011Z,88
2023-05-02T02:17:23.457Z,88
2023-05-02T02:17:41.802Z,87
2023-05-02T02:18:11.702Z,87
2023-05-02T02:18:33.785Z,87
2023-05-02T02:18:59.526Z,88
2023-05-02T02:19:31.607Z,88
2023-05-02T02:20:04.493Z,88
2023-05-02T02:20:33.825Z,88
2023-05-02T02:20:51.485Z,88
2023-05-02T02:21:23.497Z,88
2023-05-02T02:21:40.742Z,87
2023-05-02T02:22:12.408Z,87
2023-05-02T02:22:33.935Z,87
2023-05-02T02:22:59.544Z,87
2023-05-02T02:23:33.045Z,87
2023-05-02T02:24:03.495Z,87
2023-05-02T02:24:34.863Z,87
2023-05-02T02:25:07.532Z,87
2023-05-02T02:25:33.849Z,87
2023-05-02T02:25:55.494Z,87
2023-05-02T02:26:28.393Z,87
2023-05-02T02:26:59.497Z,87
2023-05-02T02:27:32.452Z,87
2023-05-02T02:28:03.498Z,87
2023-05-02T02:28:34.911Z,87
2023-05-02T02:28:51.525Z,87
2023-05-02T02:29:23.650Z,87
2023-05-02T02:29:42.994Z,87
2023-05-02T02:30:11.676Z,87
2023-05-02T02:30:34.142Z,87
2023-05-02T02:30:59.577Z,87
2023-05-02T02:31:31.832Z,87
2023-05-02T02:32:04.566Z,87
2023-05-02T02:32:33.893Z,87
2023-05-02T02:32:51.518Z,87
2023-05-02T02:33:23.516Z,87
2023-05-02T02:33:40.698Z,87
2023-05-02T02:34:12.405Z,87
2023-05-02T02:34:33.816Z,87
2023-05-02T02:34:59.451Z,87
2023-05-02T02:35:31.457Z,88
2023-05-02T02:36:03.457Z,88
2023-05-02T02:36:33.812Z,88
2023-05-02T02:36:51.662Z,88
2023-05-02T02:37:24.418Z,88
2023-05-02T02:37:41.672Z,88
2023-05-02T02:38:11.521Z,88
2023-05-02T02:38:33.888Z,88
2023-05-02T02:38:59.731Z,88
2023-05-02T02:39:32.523Z,88
2023-05-02T02:40:03.839Z,88
2023-05-02T02:40:34.777Z,88
2023-05-02T02:41:06.960Z,88
2023-05-02T02:41:23.436Z,88
2023-05-02T02:41:41.536Z,88
2023-05-02T02:42:11.513Z,88
2023-05-02T02:42:34.072Z,88
2023-05-02T02:42:59.477Z,88
2023-05-02T02:43:31.439Z,88
2023-05-02T02:44:05.325Z,88
2023-05-02T02:44:33.875Z,88
2023-05-02T02:44:51.553Z,88
2023-05-02T02:45:23.558Z,88
2023-05-02T02:45:40.690Z,88
2023-05-02T02:46:12.429Z,88
2023-05-02T02:46:33.933Z,88
2023-05-02T02:46:59.646Z,88
2023-05-02T02:47:31.641Z,88
2023-05-02T02:48:03.666Z,88
2023-05-02T02:48:33.806Z,88
2023-05-02T02:48:51.478Z,89
2023-05-02T02:49:24.542Z,89
2023-05-02T02:49:41.838Z,89
2023-05-02T02:50:11.641Z,89
2023-05-02T02:50:33.882Z,89
2023-05-02T02:50:59.467Z,89
2023-05-02T02:51:32.376Z,89
2023-05-02T02:52:03.447Z,89
2023-05-02T02:52:35.269Z,89
2023-05-02T02:53:08.473Z,89
2023-05-02T02:53:33.802Z,89
2023-05-02T02:53:55.486Z,89
2023-05-02T02:54:27.760Z,89
2023-05-02T02:55:00.718Z,89
2023-05-02T02:55:31.551Z,89
2023-05-02T02:56:04.545Z,89
2023-05-02T02:56:33.823Z,89
2023-05-02T02:56:51.497Z,90
2023-05-02T02:57:23.461Z,90
2023-05-02T02:57:40.851Z,90
2023-05-02T02:58:12.474Z,90
2023-05-02T02:58:33.777Z,90
2023-05-02T02:58:59.446Z,90
2023-05-02T02:59:31.491Z,90
2023-05-02T03:00:03.586Z,89
2023-05-02T03:00:33.815Z,89
2023-05-02T03:00:51.601Z,90
2023-05-02T03:01:24.664Z,90
2023-05-02T03:01:41.575Z,90
2023-05-02T03:02:11.528Z,90
2023-05-02T03:02:34.928Z,90
2023-05-02T03:02:59.623Z,90
2023-05-02T03:03:32.543Z,90
2023-05-02T03:04:03.704Z,90
2023-05-02T03:04:34.838Z,90
2023-05-02T03:04:51.409Z,90
2023-05-02T03:05:23.491Z,90
2023-05-02T03:05:41.888Z,90
2023-05-02T03:06:11.499Z,90
2023-05-02T03:06:33.871Z,90
2023-05-02T03:06:59.430Z,90
2023-05-02T03:07:31.653Z,90
2023-05-02T03:08:04.351Z,90
2023-05-02T03:08:34.357Z,90
2023-05-02T03:09:08.487Z,90
2023-05-02T03:09:33.768Z,90
2023-05-02T03:09:55.448Z,90
2023-05-02T03:10:27.643Z,90
2023-05-02T03:10:59.461Z,90
2023-05-02T03:11:31.445Z,90
2023-05-02T03:12:03.761Z,90
2023-05-02T03:12:33.770Z,90
2023-05-02T03:12:52.026Z,90
2023-05-02T03:13:24.266Z,90
2023-05-02T03:13:41.689Z,90
2023-05-02T03:14:11.465Z,90
2023-05-02T03:14:34.299Z,90
2023-05-02T03:14:59.485Z,90
2023-05-02T03:15:32.360Z,90
2023-05-02T03:16:03.577Z,89
2023-05-02T03:16:34.808Z,89
2023-05-02T03:17:06.903Z,89
2023-05-02T03:17:25.651Z,89
2023-05-02T03:17:41.690Z,89
2023-05-02T03:18:11.760Z,89
2023-05-02T03:18:33.799Z,89
2023-05-02T03:19:01.127Z,89
2023-05-02T03:19:31.486Z,89
2023-05-02T03:20:04.709Z,89
2023-05-02T03:20:33.810Z,89
2023-05-02T03:20:51.491Z,89
2023-05-02T03:21:23.488Z,89
2023-05-02T03:21:40.737Z,89
2023-05-02T03:22:12.401Z,89
2023-05-02T03:22:33.781Z,89
2023-05-02T03:22:59.408Z,89
2023-05-02T03:23:31.448Z,89
2023-05-02T03:24:03.504Z,89
2023-05-02T03:24:34.220Z,89
2023-05-02T03:24:51.478Z,89
2023-05-02T03:25:24.625Z,89
2023-05-02T03:25:41.581Z,89
2023-05-02T03:26:11.746Z,89
2023-05-02T03:26:34.024Z,89
2023-05-02T03:26:59.417Z,89
2023-05-02T03:27:32.410Z,89
2023-05-02T03:28:03.549Z,89
2023-05-02T03:28:34.673Z,89
2023-05-02T03:29:06.926Z,89
2023-05-02T03:29:23.400Z,88
2023-05-02T03:29:41.810Z,88
2023-05-02T03:30:11.537Z,88
2023-05-02T03:30:34.208Z,88
2023-05-02T03:30:59.479Z,88
2023-05-02T03:31:31.390Z,88
2023-05-02T03:32:04.501Z,89
2023-05-02T03:32:34.241Z,88
2023-05-02T03:32:51.584Z,88
2023-05-02T03:33:23.441Z,88
2023-05-02T03:33:40.616Z,89
2023-05-02T03:34:12.493Z,88
2023-05-02T03:34:33.846Z,88
2023-05-02T03:34:59.498Z,88
2023-05-02T03:35:31.441Z,88
2023-05-02T03:36:03.544Z,88
2023-05-02T03:36:34.115Z,88
2023-05-02T03:36:51.475Z,88
2023-05-02T03:37:24.396Z,88
2023-05-02T03:37:41.583Z,88
2023-05-02T03:38:11.500Z,88
2023-05-02T03:38:34.197Z,88
2023-05-02T03:38:59.473Z,88
2023-05-02T03:39:32.431Z,88
2023-05-02T03:40:03.606Z,88
2023-05-02T03:40:34.746Z,88
2023-05-02T03:40:51.541Z,88
2023-05-02T03:41:29.682Z,88
2023-05-02T03:41:35.036Z,88
2023-05-02T03:41:55.401Z,88
2023-05-02T03:42:27.709Z,88
2023-05-02T03:43:00.367Z,88
2023-05-02T03:43:31.432Z,88
2023-05-02T03:44:04.375Z,88
2023-05-02T03:44:33.864Z,88
2023-05-02T03:44:51.569Z,88
2023-05-02T03:45:23.516Z,88
2023-05-02T03:45:42.045Z,88
2023-05-02T03:46:12.410Z,88
2023-05-02T03:46:33.926Z,89
2023-05-02T03:46:59.552Z,89
2023-05-02T03:47:32.446Z,89
2023-05-02T03:48:03.564Z,89
2023-05-02T03:48:33.793Z,89
2023-05-02T03:48:51.568Z,89
2023-05-02T03:49:24.507Z,89
2023-05-02T03:49:41.644Z,89
2023-05-02T03:50:19.789Z,89
2023-05-02T03:50:28.323Z,89
2023-05-02T03:50:59.899Z,89
2023-05-02T03:51:32.436Z,89
2023-05-02T03:52:03.574Z,89
2023-05-02T03:52:35.646Z,89
2023-05-02T03:53:07.846Z,89
2023-05-02T03:53:33.819Z,89
2023-05-02T03:53:55.430Z,89
2023-05-02T03:54:27.908Z,89
2023-05-02T03:55:00.562Z,89
2023-05-02T03:55:31.499Z,89
2023-05-02T03:56:04.203Z,89
2023-05-02T03:56:33.789Z,89
2023-05-02T03:56:51.630Z,89
2023-05-02T03:57:29.797Z,89
2023-05-02T03:57:33.831Z,89
2023-05-02T03:57:55.422Z,89
2023-05-02T03:58:27.987Z,89
2023-05-02T03:58:59.435Z,89
2023-05-02T03:59:31.447Z,89
2023-05-02T04:00:06.115Z,90
2023-05-02T04:00:33.964Z,89
2023-05-02T04:00:51.700Z,89
2023-05-02T04:01:24.482Z,89
2023-05-02T04:01:41.924Z,89
2023-05-02T04:02:11.817Z,89
2023-05-02T04:02:34.039Z,89
2023-05-02T04:02:59.712Z,89
2023-05-02T04:03:32.559Z,89
2023-05-02T04:04:03.657Z,89
2023-05-02T04:04:35.924Z,89
2023-05-02T04:05:07.509Z,89
2023-05-02T04:05:33.914Z,89
2023-05-02T04:05:55.583Z,89
2023-05-02T04:06:27.998Z,89
2023-05-02T04:07:00.365Z,90
2023-05-02T04:07:31.456Z,89
2023-05-02T04:08:04.318Z,89
2023-05-02T04:08:34.261Z,89
2023-05-02T04:08:51.673Z,90
2023-05-02T04:09:23.487Z,90
2023-05-02T04:09:40.732Z,90
2023-05-02T04:10:12.501Z,90
2023-05-02T04:10:33.912Z,90
2023-05-02T04:10:59.436Z,89
2023-05-02T04:11:31.466Z,90
2023-05-02T04:12:03.742Z,89
2023-05-02T04:12:33.884Z,89
2023-05-02T04:12:51.656Z,89
2023-05-02T04:13:25.188Z,89
2023-05-02T04:13:41.715Z,89
2023-05-02T04:14:11.456Z,89
2023-05-02T04:14:33.912Z,89
2023-05-02T04:14:59.438Z,89
2023-05-02T04:15:32.441Z,89
2023-05-02T04:16:03.649Z,89
2023-05-02T04:16:35.180Z,89
2023-05-02T04:17:08.577Z,89
2023-05-02T04:17:33.937Z,89
2023-05-02T04:17:55.868Z,89
2023-05-02T04:18:35.341Z,89
2023-05-02T04:19:00.371Z,89
2023-05-02T04:19:31.458Z,89
2023-05-02T04:20:05.517Z,89
2023-05-02T04:20:33.866Z,89
2023-05-02T04:20:51.746Z,89
2023-05-02T04:21:23.516Z,89
2023-05-02T04:21:40.666Z,89
2023-05-02T04:22:12.657Z,89
2023-05-02T04:22:33.876Z,89
2023-05-02T04:22:59.466Z,90
2023-05-02T04:23:31.451Z,89
2023-05-02T04:24:03.622Z,89
2023-05-02T04:24:34.504Z,89
2023-05-02T04:25:07.547Z,89
2023-05-02T04:25:34.221Z,89
2023-05-02T04:25:55.478Z,89
2023-05-02T04:26:28.485Z,89
2023-05-02T04:26:59.392Z,89
2023-05-02T04:27:32.484Z,90
2023-05-02T04:28:03.677Z,90
2023-05-02T04:28:34.826Z,90
2023-05-02T04:28:51.600Z,90
2023-05-02T04:29:23.636Z,90
2023-05-02T04:29:41.814Z,90
2023-05-02T04:30:11.585Z,90
2023-05-02T04:30:33.905Z,90
2023-05-02T04:30:59.475Z,90
2023-05-02T04:31:31.607Z,90
2023-05-02T04:32:04.445Z,90
2023-05-02T04:32:33.863Z,90
2023-05-02T04:32:51.675Z,90
2023-05-02T04:33:23.480Z,90
2023-05-02T04:33:40.687Z,90
2023-05-02T04:34:12.417Z,90
2023-05-02T04:34:34.620Z,90
2023-05-02T04:35:00.295Z,90
2023-05-02T04:35:31.515Z,90
2023-05-02T04:36:03.729Z,90
2023-05-02T04:36:33.794Z,90
2023-05-02T04:36:51.640Z,90
2023-05-02T04:37:24.280Z,90
2023-05-02T04:37:41.598Z,90
2023-05-02T04:38:11.468Z,90
2023-05-02T04:38:33.857Z,90
2023-05-02T04:38:59.409Z,90
2023-05-02T04:39:32.441Z,90
2023-05-02T04:40:03.823Z,90
2023-05-02T04:40:34.690Z,90
2023-05-02T04:40:51.646Z,90
2023-05-02T04:41:23.444Z,90
2023-05-02T04:41:41.654Z,90
2023-05-02T04:42:11.859Z,90
2023-05-02T04:42:33.822Z,90
2023-05-02T04:42:59.428Z,90
2023-05-02T04:43:31.535Z,90
2023-05-02T04:44:04.459Z,90
2023-05-02T04:44:33.841Z,90
2023-05-02T04:44:51.700Z,90
2023-05-02T04:45:23.397Z,90
2023-05-02T04:45:40.847Z,90
2023-05-02T04:46:12.294Z,90
2023-05-02T04:46:33.935Z,90
2023-05-02T04:46:59.368Z,90
2023-05-02T04:47:31.465Z,90
2023-05-02T04:48:03.822Z,90
2023-05-02T04:48:33.842Z,90
2023-05-02T04:48:51.792Z,90
2023-05-02T04:49:24.325Z,90
2023-05-02T04:49:41.558Z,90
2023-05-02T04:50:11.401Z,90
2023-05-02T04:50:33.866Z,90
2023-05-02T04:50:59.506Z,90
2023-05-02T04:51:32.220Z,90
2023-05-02T04:52:03.635Z,90
2023-05-02T04:52:34.843Z,90
2023-05-02T04:52:51.590Z,90
2023-05-02T04:53:23.421Z,90
2023-05-02T04:53:41.517Z,90
2023-05-02T04:54:11.451Z,90
2023-05-02T04:54:33.794Z,90
2023-05-02T04:54:59.488Z,90
2023-05-02T04:55:32.150Z,90
2023-05-02T04:56:04.361Z,90
2023-05-02T04:56:35.095Z,90
2023-05-02T04:56:51.677Z,90
2023-05-02T04:57:23.610Z,90
2023-05-02T04:57:40.826Z,89
2023-05-02T04:58:12.369Z,90
2023-05-02T04:58:34.518Z,90
2023-05-02T04:58:59.405Z,90
2023-05-02T04:59:31.471Z,89
2023-05-02T05:00:03.982Z,89
2023-05-02T05:00:34.086Z,89
2023-05-02T05:00:51.720Z,89
2023-05-02T05:01:24.551Z,89
2023-05-02T05:01:42.530Z,89
2023-05-02T05:02:11.486Z,89
2023-05-02T05:02:33.853Z,89
2023-05-02T05:03:01.562Z,89
2023-05-02T05:03:32.447Z,89
2023-05-02T05:04:03.931Z,89
2023-05-02T05:04:34.781Z,89
2023-05-02T05:04:51.683Z,89
2023-05-02T05:05:23.477Z,89
2023-05-02T05:05:41.610Z,89
2023-05-02T05:06:11.540Z,89
2023-05-02T05:06:33.898Z,89
2023-05-02T05:06:59.492Z,89
2023-05-02T05:07:31.452Z,89
2023-05-02T05:08:04.391Z,89
2023-05-02T05:08:33.838Z,89
2023-05-02T05:08:51.703Z,89
2023-05-02T05:09:23.424Z,89
2023-05-02T05:09:40.695Z,89
2023-05-02T05:10:12.310Z,89
2023-05-02T05:10:33.893Z,89
2023-05-02T05:10:59.419Z,89
2023-05-02T05:11:31.377Z,89
2023-05-02T05:12:04.578Z,89
2023-05-02T05:12:33.772Z,89
2023-05-02T05:12:51.712Z,89
2023-05-02T05:13:23.446Z,89
2023-05-02T05:13:40.722Z,89
2023-05-02T05:14:12.310Z,89
2023-05-02T05:14:33.841Z,89
2023-05-02T05:14:59.347Z,89
2023-05-02T05:15:31.452Z,89
2023-05-02T05:16:03.813Z,88
2023-05-02T05:16:33.871Z,88
2023-05-02T05:16:51.770Z,88
2023-05-02T05:17:24.343Z,88
2023-05-02T05:17:41.558Z,88
2023-05-02T05:18:11.552Z,88
2023-05-02T05:18:33.804Z,88
2023-05-02T05:18:59.327Z,88
2023-05-02T05:19:32.429Z,88
2023-05-02T05:20:03.781Z,88
2023-05-02T05:20:34.711Z,88
2023-05-02T05:21:06.778Z,88
2023-05-02T05:21:23.340Z,88
2023-05-02T05:21:41.609Z,88
2023-05-02T05:22:11.362Z,88
2023-05-02T05:22:33.828Z,88
2023-05-02T05:22:59.408Z,88
2023-05-02T05:23:31.458Z,88
2023-05-02T05:24:04.389Z,88
2023-05-02T05:24:33.851Z,88
2023-05-02T05:24:51.842Z,87
2023-05-02T05:25:23.908Z,87
2023-05-02T05:25:41.892Z,87
2023-05-02T05:26:12.448Z,87
2023-05-02T05:26:33.941Z,87
2023-05-02T05:26:59.379Z,87
2023-05-02T05:27:31.366Z,87
2023-05-02T05:28:03.750Z,87
2023-05-02T05:28:33.789Z,87
2023-05-02T05:28:51.716Z,87
2023-05-02T05:29:24.469Z,87
2023-05-02T05:29:41.716Z,87
2023-05-02T05:30:12.118Z,87
2023-05-02T05:30:33.941Z,87
2023-05-02T05:30:59.468Z,87
2023-05-02T05:31:32.628Z,87
2023-05-02T05:32:03.906Z,87
2023-05-02T05:32:34.800Z,87
2023-05-02T05:32:51.641Z,87
2023-05-02T05:33:23.524Z,87
2023-05-02T05:33:41.534Z,87
2023-05-02T05:34:11.522Z,87
2023-05-02T05:34:34.230Z,87
2023-05-02T05:34:59.405Z,87
2023-05-02T05:35:31.386Z,87
2023-05-02T05:36:04.251Z,87
2023-05-02T05:36:33.761Z,87
2023-05-02T05:36:51.781Z,87
2023-05-02T05:37:23.338Z,87
2023-05-02T05:37:40.912Z,87
2023-05-02T05:38:12.293Z,87
2023-05-02T05:38:33.782Z,87
2023-05-02T05:38:59.369Z,87
2023-05-02T05:39:31.351Z,87
2023-05-02T05:40:04.079Z,87
2023-05-02T05:40:33.778Z,87
2023-05-02T05:40:51.729Z,87
2023-05-02T05:41:24.201Z,87
2023-05-02T05:41:41.538Z,86
2023-05-02T05:42:11.372Z,86
2023-05-02T05:42:34.304Z,86
2023-05-02T05:42:59.366Z,86
2023-05-02T05:43:32.176Z,87
2023-05-02T05:44:03.799Z,87
2023-05-02T05:44:34.860Z,86
2023-05-02T05:44:52.786Z,86
2023-05-02T05:45:23.593Z,86
2023-05-02T05:45:41.758Z,87
2023-05-02T05:46:11.489Z,87
2023-05-02T05:46:33.919Z,87
2023-05-02T05:46:59.566Z,86
2023-05-02T05:47:31.622Z,86
2023-05-02T05:48:04.590Z,86
2023-05-02T05:48:33.840Z,86
2023-05-02T05:48:51.647Z,86
2023-05-02T05:49:23.432Z,86
2023-05-02T05:49:40.796Z,86
2023-05-02T05:50:13.072Z,86
2023-05-02T05:50:33.793Z,86
2023-05-02T05:50:59.505Z,86
2023-05-02T05:51:31.400Z,86
2023-05-02T05:52:03.977Z,86
2023-05-02T05:52:33.835Z,86
2023-05-02T05:52:51.879Z,86
2023-05-02T05:53:24.461Z,87
2023-05-02T05:53:41.525Z,87
2023-05-02T05:54:11.421Z,86
2023-05-02T05:54:33.864Z,86
2023-05-02T05:54:59.624Z,86
2023-05-02T05:55:32.572Z,87
2023-05-02T05:56:03.934Z,86
2023-05-02T05:56:34.720Z,86
2023-05-02T05:56:51.542Z,86
2023-05-02T05:57:23.434Z,86
2023-05-02T05:57:41.757Z,86
2023-05-02T05:58:12.078Z,86
2023-05-02T05:58:33.785Z,86
2023-05-02T05:58:59.472Z,86
2023-05-02T05:59:31.380Z,86
2023-05-02T06:00:04.671Z,86
2023-05-02T06:00:33.801Z,86
2023-05-02T06:00:51.701Z,86
2023-05-02T06:01:23.416Z,86
2023-05-02T06:01:40.628Z,86
2023-05-02T06:02:12.284Z,86
2023-05-02T06:02:34.111Z,86
2023-05-02T06:02:59.377Z,86
2023-05-02T06:03:31.690Z,86
2023-05-02T06:04:03.739Z,86
2023-05-02T06:04:33.870Z,85
2023-05-02T06:04:51.756Z,85
2023-05-02T06:05:24.298Z,85
2023-05-02T06:05:41.599Z,85
2023-05-02T06:06:11.526Z,85
2023-05-02T06:06:34.100Z,85
2023-05-02T06:06:59.440Z,85
2023-05-02T06:07:32.280Z,85
2023-05-02T06:08:03.748Z,85
2023-05-02T06:08:34.888Z,85
2023-05-02T06:08:51.789Z,85
2023-05-02T06:09:23.377Z,85
2023-05-02T06:09:41.817Z,85
2023-05-02T06:10:11.451Z,85
2023-05-02T06:10:33.777Z,85
2023-05-02T06:10:59.436Z,85
2023-05-02T06:11:31.854Z,85
2023-05-02T06:12:04.419Z,85
2023-05-02T06:12:35.086Z,85
2023-05-02T06:12:51.746Z,85
2023-05-02T06:13:23.369Z,85
2023-05-02T06:13:40.649Z,85
2023-05-02T06:14:12.338Z,85
2023-05-02T06:14:33.802Z,85
2023-05-02T06:14:59.394Z,85
2023-05-02T06:15:31.413Z,85
2023-05-02T06:16:03.776Z,84
2023-05-02T06:16:33.990Z,84
2023-05-02T06:16:51.712Z,85
2023-05-02T06:17:24.279Z,85
2023-05-02T06:17:43.205Z,85
2023-05-02T06:18:11.529Z,85
2023-05-02T06:18:33.893Z,85
2023-05-02T06:18:59.439Z,85
2023-05-02T06:19:32.432Z,85
2023-05-02T06:20:03.691Z,85
2023-05-02T06:20:34.812Z,85
2023-05-02T06:20:51.647Z,85
2023-05-02T06:21:23.524Z,85
2023-05-02T06:21:41.689Z,85
2023-05-02T06:22:11.481Z,84
2023-05-02T06:22:33.978Z,84
2023-05-02T06:22:59.406Z,84
2023-05-02T06:23:31.394Z,84
2023-05-02T06:24:04.299Z,84
2023-05-02T06:24:34.213Z,84
2023-05-02T06:25:08.202Z,84